createdAt,value
2018-09-20T00:00:37.334Z,11.66
2018-09-20T00:01:42.369Z,11.71
2018-09-20T00:02:49.020Z,11.65
2018-09-20T00:03:53.474Z,11.64
2018-09-20T00:04:37.222Z,11.74
2018-09-20T00:05:36.607Z,11.64
2018-09-20T00:06:36.863Z,11.82
2018-09-20T00:07:36.612Z,11.7
2018-09-20T00:08:36.977Z,11.7
2018-09-20T00:09:36.613Z,11.7
2018-09-20T00:10:36.584Z,11.69
2018-09-20T00:11:36.580Z,11.69
2018-09-20T00:12:36.848Z,11.69
2018-09-20T00:13:36.618Z,11.54
2018-09-20T00:14:36.595Z,11.7
2018-09-20T00:15:37.130Z,11.65
2018-09-20T00:16:36.665Z,11.75
2018-09-20T00:17:36.717Z,11.73
2018-09-20T00:18:36.627Z,11.74
2018-09-20T00:19:36.937Z,11.65
2018-09-20T00:20:36.620Z,11.77
2018-09-20T00:21:36.578Z,11.67
2018-09-20T00:22:36.680Z,11.6
2018-09-20T00:23:36.609Z,11.61
2018-09-20T00:24:36.692Z,11.66
2018-09-20T00:25:36.847Z,11.6
2018-09-20T00:26:36.603Z,11.61
2018-09-20T00:27:36.688Z,11.55
2018-09-20T00:28:36.664Z,11.55
2018-09-20T00:29:36.592Z,11.57
2018-09-20T00:30:36.619Z,11.64
2018-09-20T00:31:36.591Z,11.67
2018-09-20T00:32:36.701Z,11.64
2018-09-20T00:33:36.815Z,11.68
2018-09-20T00:34:36.636Z,11.56
2018-09-20T00:35:36.722Z,11.64
2018-09-20T00:36:36.630Z,11.72
2018-09-20T00:37:36.577Z,11.68
2018-09-20T00:38:36.626Z,11.71
2018-09-20T00:39:36.653Z,11.69
2018-09-20T00:40:36.800Z,11.71
2018-09-20T00:41:36.654Z,11.82
2018-09-20T00:42:36.742Z,11.69
2018-09-20T00:43:36.650Z,11.64
2018-09-20T00:44:37.241Z,11.59
2018-09-20T00:45:36.818Z,11.54
2018-09-20T00:46:36.622Z,11.62
2018-09-20T00:47:36.602Z,11.59
2018-09-20T00:48:36.684Z,11.66
2018-09-20T00:49:36.746Z,11.64
2018-09-20T00:50:37.870Z,11.61
2018-09-20T00:51:36.791Z,11.57
2018-09-20T00:52:37.344Z,11.59
2018-09-20T00:53:36.620Z,11.66
2018-09-20T00:54:38.439Z,11.69
2018-09-20T00:55:36.698Z,11.57
2018-09-20T00:56:36.682Z,11.63
2018-09-20T00:57:36.597Z,11.56
2018-09-20T00:58:36.575Z,11.57
2018-09-20T00:59:36.727Z,11.75
2018-09-20T01:00:39.047Z,11.62
2018-09-20T01:01:36.620Z,11.76
2018-09-20T01:02:36.571Z,11.66
2018-09-20T01:03:36.716Z,11.59
2018-09-20T01:04:36.594Z,11.69
2018-09-20T01:05:40.963Z,11.6
2018-09-20T01:06:36.634Z,11.62
2018-09-20T01:07:37.790Z,11.6
2018-09-20T01:08:38.415Z,11.68
2018-09-20T01:09:38.463Z,11.67
2018-09-20T01:10:38.820Z,11.63
2018-09-20T01:11:36.601Z,11.62
2018-09-20T01:12:36.670Z,11.62
2018-09-20T01:13:36.676Z,11.66
2018-09-20T01:14:36.561Z,11.62
2018-09-20T01:15:36.635Z,11.71
2018-09-20T01:16:36.622Z,11.63
2018-09-20T01:17:36.576Z,11.6
2018-09-20T01:18:36.675Z,11.53
2018-09-20T01:19:36.678Z,11.65
2018-09-20T01:20:36.570Z,11.62
2018-09-20T01:21:36.593Z,11.63
2018-09-20T01:22:36.591Z,11.7
2018-09-20T01:23:36.598Z,11.65
2018-09-20T01:24:36.618Z,11.59
2018-09-20T01:25:36.601Z,11.6
2018-09-20T01:26:36.628Z,11.58
2018-09-20T01:27:36.589Z,11.53
2018-09-20T01:28:36.581Z,11.65
2018-09-20T01:29:36.755Z,11.67
2018-09-20T01:30:36.706Z,11.62
2018-09-20T01:31:36.850Z,11.58
2018-09-20T01:32:36.644Z,11.78
2018-09-20T01:33:36.611Z,11.63
2018-09-20T01:34:36.553Z,11.76
2018-09-20T01:35:36.873Z,11.61
2018-09-20T01:36:36.985Z,11.72
2018-09-20T01:37:36.568Z,11.67
2018-09-20T01:38:36.642Z,11.57
2018-09-20T01:39:36.625Z,11.67
2018-09-20T01:40:36.581Z,11.75
2018-09-20T01:41:36.654Z,11.71
2018-09-20T01:42:36.647Z,11.77
2018-09-20T01:43:36.651Z,11.81
2018-09-20T01:44:37.049Z,11.63
2018-09-20T01:45:36.653Z,11.76
2018-09-20T01:46:36.563Z,11.67
2018-09-20T01:47:36.600Z,11.66
2018-09-20T01:48:36.805Z,11.63
2018-09-20T01:49:36.636Z,11.6
2018-09-20T01:50:36.593Z,11.55
2018-09-20T01:51:36.679Z,11.63
2018-09-20T01:52:36.587Z,11.59
2018-09-20T01:53:36.659Z,11.58
2018-09-20T01:54:36.649Z,11.59
2018-09-20T01:55:36.594Z,11.56
2018-09-20T01:56:36.600Z,11.55
2018-09-20T01:57:36.634Z,11.48
2018-09-20T01:58:36.552Z,11.51
2018-09-20T01:59:36.673Z,11.55
2018-09-20T02:00:36.769Z,11.51
2018-09-20T02:01:36.586Z,11.57
2018-09-20T02:02:36.583Z,11.58
2018-09-20T02:03:36.623Z,11.61
2018-09-20T02:04:36.742Z,11.53
2018-09-20T02:05:36.755Z,11.6
2018-09-20T02:06:36.581Z,11.54
2018-09-20T02:07:36.785Z,11.55
2018-09-20T02:08:36.583Z,11.7
2018-09-20T02:09:36.573Z,11.65
2018-09-20T02:10:36.608Z,11.66
2018-09-20T02:11:36.736Z,11.64
2018-09-20T02:12:36.718Z,11.67
2018-09-20T02:13:38.802Z,11.59
2018-09-20T02:14:36.584Z,11.58
2018-09-20T02:15:36.564Z,11.61
2018-09-20T02:16:36.842Z,11.6
2018-09-20T02:17:36.663Z,11.74
2018-09-20T02:18:36.599Z,11.68
2018-09-20T02:19:36.674Z,11.55
2018-09-20T02:20:36.572Z,11.69
2018-09-20T02:21:36.706Z,11.61
2018-09-20T02:22:36.581Z,11.5
2018-09-20T02:23:36.553Z,11.51
2018-09-20T02:24:37.079Z,11.57
2018-09-20T02:25:36.596Z,11.63
2018-09-20T02:26:36.670Z,11.76
2018-09-20T02:27:36.549Z,11.54
2018-09-20T02:28:36.843Z,11.67
2018-09-20T02:29:36.567Z,11.68
2018-09-20T02:30:36.738Z,11.55
2018-09-20T02:31:36.585Z,11.5
2018-09-20T02:32:36.583Z,11.73
2018-09-20T02:33:36.652Z,11.76
2018-09-20T02:34:36.652Z,11.73
2018-09-20T02:35:36.631Z,11.62
2018-09-20T02:36:36.673Z,11.63
2018-09-20T02:37:36.591Z,11.73
2018-09-20T02:38:36.634Z,11.59
2018-09-20T02:39:36.550Z,11.62
2018-09-20T02:40:36.676Z,11.54
2018-09-20T02:41:36.604Z,11.68
2018-09-20T02:42:36.634Z,11.61
2018-09-20T02:43:36.594Z,11.54
2018-09-20T02:44:36.631Z,11.66
2018-09-20T02:45:36.568Z,11.67
2018-09-20T02:46:36.634Z,11.51
2018-09-20T02:47:36.565Z,11.59
2018-09-20T02:48:36.799Z,11.56
2018-09-20T02:49:36.551Z,11.59
2018-09-20T02:50:36.582Z,11.6
2018-09-20T02:51:36.553Z,11.54
2018-09-20T02:52:36.545Z,11.53
2018-09-20T02:53:36.590Z,11.72
2018-09-20T02:54:36.678Z,11.65
2018-09-20T02:55:36.643Z,11.54
2018-09-20T02:56:36.596Z,11.62
2018-09-20T02:57:36.545Z,11.62
2018-09-20T02:58:36.737Z,11.65
2018-09-20T02:59:36.573Z,11.54
2018-09-20T03:00:36.601Z,11.61
2018-09-20T03:01:36.640Z,11.59
2018-09-20T03:02:36.583Z,11.55
2018-09-20T03:03:36.825Z,11.67
2018-09-20T03:04:36.680Z,11.57
2018-09-20T03:05:36.809Z,11.52
2018-09-20T03:06:36.552Z,11.52
2018-09-20T03:07:36.700Z,11.58
2018-09-20T03:08:36.629Z,11.63
2018-09-20T03:09:36.550Z,11.63
2018-09-20T03:10:36.666Z,11.63
2018-09-20T03:11:36.614Z,11.55
2018-09-20T03:12:36.625Z,11.51
2018-09-20T03:13:36.766Z,11.63
2018-09-20T03:14:36.566Z,11.56
2018-09-20T03:15:36.621Z,11.58
2018-09-20T03:16:36.721Z,11.57
2018-09-20T03:17:36.611Z,11.66
2018-09-20T03:18:36.894Z,11.52
2018-09-20T03:19:36.581Z,11.58
2018-09-20T03:20:36.570Z,11.72
2018-09-20T03:21:37.384Z,11.61
2018-09-20T03:22:36.617Z,11.52
2018-09-20T03:23:36.751Z,11.61
2018-09-20T03:24:36.588Z,11.57
2018-09-20T03:25:36.624Z,11.64
2018-09-20T03:26:36.662Z,11.49
2018-09-20T03:27:36.647Z,11.56
2018-09-20T03:28:37.342Z,11.59
2018-09-20T03:29:36.646Z,11.58
2018-09-20T03:30:37.781Z,11.42
2018-09-20T03:31:38.110Z,11.53
2018-09-20T03:32:36.617Z,11.5
2018-09-20T03:33:36.620Z,11.64
2018-09-20T03:34:36.569Z,11.59
2018-09-20T03:35:36.562Z,11.52
2018-09-20T03:36:36.743Z,11.6
2018-09-20T03:37:36.575Z,11.63
2018-09-20T03:38:36.571Z,11.53
2018-09-20T03:39:36.749Z,11.54
2018-09-20T03:40:37.957Z,11.57
2018-09-20T03:41:36.603Z,11.44
2018-09-20T03:42:36.661Z,11.52
2018-09-20T03:43:36.574Z,11.53
2018-09-20T03:44:36.641Z,11.56
2018-09-20T03:45:36.864Z,11.61
2018-09-20T03:46:36.582Z,11.52
2018-09-20T03:47:36.595Z,11.56
2018-09-20T03:48:36.627Z,11.53
2018-09-20T03:49:36.656Z,11.67
2018-09-20T03:50:36.718Z,11.55
2018-09-20T03:51:36.823Z,11.56
2018-09-20T03:52:36.760Z,11.5
2018-09-20T03:53:36.565Z,11.41
2018-09-20T03:54:36.650Z,11.48
2018-09-20T03:55:36.643Z,11.5
2018-09-20T03:56:36.620Z,11.56
2018-09-20T03:57:36.717Z,11.61
2018-09-20T03:58:36.582Z,11.57
2018-09-20T03:59:36.591Z,11.56
2018-09-20T04:00:36.548Z,11.53
2018-09-20T04:01:36.707Z,11.6
2018-09-20T04:02:36.568Z,11.53
2018-09-20T04:03:36.592Z,11.53
2018-09-20T04:04:36.641Z,11.51
2018-09-20T04:05:36.566Z,11.45
2018-09-20T04:06:36.638Z,11.44
2018-09-20T04:07:36.536Z,11.58
2018-09-20T04:08:36.540Z,11.51
2018-09-20T04:09:37.268Z,11.55
2018-09-20T04:10:36.535Z,11.58
2018-09-20T04:11:36.545Z,11.5
2018-09-20T04:12:36.621Z,11.45
2018-09-20T04:13:36.549Z,11.55
2018-09-20T04:14:36.577Z,11.46
2018-09-20T04:15:36.598Z,11.47
2018-09-20T04:16:36.708Z,11.54
2018-09-20T04:17:36.652Z,11.53
2018-09-20T04:18:36.720Z,11.55
2018-09-20T04:19:36.513Z,11.44
2018-09-20T04:20:36.678Z,11.53
2018-09-20T04:21:36.619Z,11.64
2018-09-20T04:22:37.011Z,11.58
2018-09-20T04:23:36.697Z,11.57
2018-09-20T04:24:36.691Z,11.55
2018-09-20T04:25:36.737Z,11.48
2018-09-20T04:26:36.565Z,11.47
2018-09-20T04:27:36.563Z,11.6
2018-09-20T04:28:36.702Z,11.64
2018-09-20T04:29:36.765Z,11.66
2018-09-20T04:30:36.780Z,11.65
2018-09-20T04:31:36.891Z,11.57
2018-09-20T04:32:37.129Z,11.64
2018-09-20T04:33:36.714Z,11.49
2018-09-20T04:34:36.570Z,11.55
2018-09-20T04:35:36.710Z,11.45
2018-09-20T04:36:36.654Z,11.49
2018-09-20T04:37:36.579Z,11.55
2018-09-20T04:38:36.598Z,11.46
2018-09-20T04:39:37.083Z,11.58
2018-09-20T04:40:36.643Z,11.48
2018-09-20T04:41:36.569Z,11.58
2018-09-20T04:42:36.526Z,11.55
2018-09-20T04:43:36.531Z,11.53
2018-09-20T04:44:36.558Z,11.45
2018-09-20T04:45:36.647Z,11.43
2018-09-20T04:46:36.605Z,11.51
2018-09-20T04:47:36.592Z,11.48
2018-09-20T04:48:36.529Z,11.47
2018-09-20T04:49:36.613Z,11.59
2018-09-20T04:50:36.610Z,11.49
2018-09-20T04:51:36.576Z,11.49
2018-09-20T04:52:36.628Z,11.44
2018-09-20T04:53:36.552Z,11.43
2018-09-20T04:54:36.525Z,11.49
2018-09-20T04:55:36.576Z,11.42
2018-09-20T04:56:36.527Z,11.5
2018-09-20T04:57:36.562Z,11.52
2018-09-20T04:58:36.514Z,11.53
2018-09-20T04:59:36.644Z,11.57
2018-09-20T05:00:36.775Z,11.48
2018-09-20T05:01:36.606Z,11.55
2018-09-20T05:02:36.513Z,11.53
2018-09-20T05:03:36.898Z,11.52
2018-09-20T05:04:36.767Z,11.48
2018-09-20T05:05:36.517Z,11.54
2018-09-20T05:06:36.584Z,11.46
2018-09-20T05:07:36.547Z,11.48
2018-09-20T05:08:37.002Z,11.4
2018-09-20T05:09:37.239Z,11.44
2018-09-20T05:10:36.758Z,11.42
2018-09-20T05:11:36.581Z,11.39
2018-09-20T05:12:36.893Z,11.46
2018-09-20T05:13:36.552Z,11.49
2018-09-20T05:14:36.842Z,11.4
2018-09-20T05:15:36.582Z,11.41
2018-09-20T05:16:36.769Z,11.45
2018-09-20T05:17:36.613Z,11.43
2018-09-20T05:18:36.510Z,11.38
2018-09-20T05:19:36.567Z,11.4
2018-09-20T05:20:36.560Z,11.44
2018-09-20T05:21:36.524Z,11.41
2018-09-20T05:22:36.578Z,11.51
2018-09-20T05:23:36.581Z,11.42
2018-09-20T05:24:36.510Z,11.37
2018-09-20T05:25:36.524Z,11.45
2018-09-20T05:26:36.548Z,11.34
2018-09-20T05:27:36.651Z,11.52
2018-09-20T05:28:36.544Z,11.4
2018-09-20T05:29:36.553Z,11.39
2018-09-20T05:30:36.585Z,11.55
2018-09-20T05:31:36.592Z,11.48
2018-09-20T05:32:36.585Z,11.49
2018-09-20T05:33:36.599Z,11.46
2018-09-20T05:34:36.804Z,11.53
2018-09-20T05:35:37.306Z,11.66
2018-09-20T05:36:36.529Z,11.57
2018-09-20T05:37:36.510Z,11.47
2018-09-20T05:38:36.551Z,11.57
2018-09-20T05:39:36.709Z,11.47
2018-09-20T05:40:36.587Z,11.51
2018-09-20T05:41:38.006Z,11.49
2018-09-20T05:42:36.619Z,11.52
2018-09-20T05:43:37.325Z,11.57
2018-09-20T05:44:36.531Z,11.51
2018-09-20T05:45:36.711Z,11.55
2018-09-20T05:46:36.639Z,11.51
2018-09-20T05:47:36.585Z,11.51
2018-09-20T05:48:36.585Z,11.51
2018-09-20T05:49:36.524Z,11.67
2018-09-20T05:50:36.807Z,11.59
2018-09-20T05:51:36.568Z,11.59
2018-09-20T05:52:36.554Z,11.56
2018-09-20T05:53:36.501Z,11.61
2018-09-20T05:54:36.632Z,11.52
2018-09-20T05:55:36.760Z,11.59
2018-09-20T05:56:36.612Z,11.62
2018-09-20T05:57:36.549Z,11.61
2018-09-20T05:58:36.717Z,11.58
2018-09-20T05:59:36.758Z,11.6
2018-09-20T06:00:36.586Z,11.6
2018-09-20T06:01:36.598Z,11.71
2018-09-20T06:02:36.616Z,11.73
2018-09-20T06:03:36.595Z,11.76
2018-09-20T06:04:36.673Z,11.7
2018-09-20T06:05:36.985Z,11.62
2018-09-20T06:06:36.633Z,11.66
2018-09-20T06:07:36.540Z,11.57
2018-09-20T06:08:36.590Z,11.56
2018-09-20T06:09:36.553Z,11.64
2018-09-20T06:10:36.597Z,11.67
2018-09-20T06:11:37.222Z,11.72
2018-09-20T06:12:36.578Z,11.61
2018-09-20T06:13:36.537Z,11.74
2018-09-20T06:14:36.563Z,11.67
2018-09-20T06:15:36.641Z,11.72
2018-09-20T06:16:36.740Z,11.6
2018-09-20T06:17:36.636Z,11.61
2018-09-20T06:18:36.652Z,11.69
2018-09-20T06:19:36.585Z,11.71
2018-09-20T06:20:36.592Z,11.66
2018-09-20T06:21:36.640Z,11.61
2018-09-20T06:22:36.575Z,11.66
2018-09-20T06:23:36.585Z,11.75
2018-09-20T06:24:36.602Z,11.65
2018-09-20T06:25:36.815Z,11.72
2018-09-20T06:26:36.582Z,11.75
2018-09-20T06:27:38.871Z,11.73
2018-09-20T06:28:36.546Z,11.66
2018-09-20T06:29:36.659Z,11.72
2018-09-20T06:30:36.772Z,11.65
2018-09-20T06:31:36.522Z,11.73
2018-09-20T06:32:36.986Z,11.78
2018-09-20T06:33:36.797Z,11.87
2018-09-20T06:34:37.984Z,11.81
2018-09-20T06:35:36.756Z,11.83
2018-09-20T06:36:36.820Z,11.73
2018-09-20T06:37:36.508Z,11.71
2018-09-20T06:38:36.704Z,11.86
2018-09-20T06:39:36.488Z,11.83
2018-09-20T06:40:36.528Z,11.78
2018-09-20T06:41:36.511Z,11.74
2018-09-20T06:42:36.609Z,11.75
2018-09-20T06:43:36.534Z,11.72
2018-09-20T06:44:36.582Z,11.79
2018-09-20T06:45:36.661Z,11.84
2018-09-20T06:46:36.709Z,11.79
2018-09-20T06:47:36.563Z,11.89
2018-09-20T06:48:36.498Z,11.83
2018-09-20T06:49:36.519Z,11.87
2018-09-20T06:50:36.531Z,11.88
2018-09-20T06:51:36.511Z,11.93
2018-09-20T06:52:36.542Z,11.94
2018-09-20T06:53:36.523Z,11.86
2018-09-20T06:54:36.523Z,11.91
2018-09-20T06:55:36.618Z,11.87
2018-09-20T06:56:37.104Z,11.92
2018-09-20T06:57:36.530Z,11.84
2018-09-20T06:58:36.521Z,11.91
2018-09-20T06:59:36.568Z,11.98
2018-09-20T07:00:36.507Z,11.94
2018-09-20T07:01:36.493Z,11.96
2018-09-20T07:02:36.604Z,11.93
2018-09-20T07:03:36.614Z,11.95
2018-09-20T07:04:36.531Z,12.04
2018-09-20T07:05:36.630Z,11.93
2018-09-20T07:06:36.483Z,11.92
2018-09-20T07:07:36.626Z,11.95
2018-09-20T07:08:36.632Z,11.98
2018-09-20T07:09:36.558Z,12.01
2018-09-20T07:10:36.570Z,12.12
2018-09-20T07:11:36.514Z,12.04
2018-09-20T07:12:36.513Z,12.11
2018-09-20T07:13:36.797Z,12.11
2018-09-20T07:14:36.538Z,12.13
2018-09-20T07:15:36.525Z,12.21
2018-09-20T07:16:36.672Z,12.21
2018-09-20T07:17:36.646Z,12.21
2018-09-20T07:18:36.564Z,12.16
2018-09-20T07:19:36.526Z,12.16
2018-09-20T07:20:36.887Z,12.13
2018-09-20T07:21:36.736Z,12.25
2018-09-20T07:22:38.520Z,12.22
2018-09-20T07:23:36.680Z,12.26
2018-09-20T07:24:37.164Z,12.24
2018-09-20T07:25:37.004Z,12.3
2018-09-20T07:26:36.518Z,12.28
2018-09-20T07:27:36.637Z,12.36
2018-09-20T07:28:36.690Z,12.34
2018-09-20T07:29:36.556Z,12.32
2018-09-20T07:30:36.532Z,12.39
2018-09-20T07:31:49.231Z,12.39
2018-09-20T07:32:36.916Z,12.42
2018-09-20T07:33:36.689Z,12.27
2018-09-20T07:34:36.617Z,12.32
2018-09-20T07:35:36.502Z,12.38
2018-09-20T07:36:36.547Z,12.38
2018-09-20T07:37:37.582Z,12.43
2018-09-20T07:38:36.788Z,12.45
2018-09-20T07:39:36.456Z,12.43
2018-09-20T07:40:37.452Z,12.48
2018-09-20T07:41:36.633Z,12.44
2018-09-20T07:42:37.228Z,12.42
2018-09-20T07:43:37.265Z,12.52
2018-09-20T07:44:36.618Z,12.5
2018-09-20T07:45:36.573Z,12.47
2018-09-20T07:46:36.699Z,12.5
2018-09-20T07:47:36.558Z,12.52
2018-09-20T07:48:36.698Z,12.49
2018-09-20T07:49:36.670Z,12.45
2018-09-20T07:50:36.536Z,12.46
2018-09-20T07:51:36.472Z,12.43
2018-09-20T07:52:36.927Z,12.54
2018-09-20T07:53:37.006Z,12.47
2018-09-20T07:54:36.568Z,12.47
2018-09-20T07:55:36.863Z,12.43
2018-09-20T07:56:36.897Z,12.49
2018-09-20T07:57:36.534Z,12.51
2018-09-20T07:58:36.513Z,12.49
2018-09-20T07:59:36.463Z,12.46
2018-09-20T08:00:36.619Z,12.5
2018-09-20T08:01:37.334Z,12.51
2018-09-20T08:02:36.666Z,12.48
2018-09-20T08:03:36.541Z,12.57
2018-09-20T08:04:36.496Z,12.54
2018-09-20T08:05:36.737Z,12.5
2018-09-20T08:06:36.551Z,12.44
2018-09-20T08:07:36.528Z,12.48
2018-09-20T08:08:36.610Z,12.58
2018-09-20T08:09:36.539Z,12.57
2018-09-20T08:10:36.656Z,12.57
2018-09-20T08:11:36.537Z,12.66
2018-09-20T08:12:36.526Z,12.57
2018-09-20T08:13:36.636Z,12.61
2018-09-20T08:14:36.668Z,12.68
2018-09-20T08:15:36.588Z,12.68
2018-09-20T08:16:36.496Z,12.52
2018-09-20T08:17:36.580Z,12.61
2018-09-20T08:18:36.463Z,12.6
2018-09-20T08:19:36.477Z,12.61
2018-09-20T08:20:36.656Z,12.75
2018-09-20T08:21:37.052Z,12.6
2018-09-20T08:22:36.655Z,12.64
2018-09-20T08:23:36.560Z,12.69
2018-09-20T08:24:36.561Z,12.67
2018-09-20T08:25:36.484Z,12.69
2018-09-20T08:26:36.685Z,12.66
2018-09-20T08:27:36.808Z,12.75
2018-09-20T08:28:36.502Z,12.64
2018-09-20T08:29:36.500Z,12.76
2018-09-20T08:30:36.507Z,12.69
2018-09-20T08:31:36.486Z,12.8
2018-09-20T08:32:36.492Z,12.69
2018-09-20T08:33:36.574Z,12.68
2018-09-20T08:34:36.485Z,12.7
2018-09-20T08:35:36.492Z,12.69
2018-09-20T08:36:36.491Z,12.63
2018-09-20T08:37:36.989Z,12.63
2018-09-20T08:38:36.642Z,12.68
2018-09-20T08:39:36.492Z,12.67
2018-09-20T08:40:36.556Z,12.7
2018-09-20T08:41:36.469Z,12.83
2018-09-20T08:42:36.673Z,12.69
2018-09-20T08:43:36.621Z,12.7
2018-09-20T08:44:36.535Z,12.78
2018-09-20T08:45:36.640Z,12.84
2018-09-20T08:46:36.638Z,12.82
2018-09-20T08:47:36.621Z,12.72
2018-09-20T08:48:36.484Z,12.7
2018-09-20T08:49:36.480Z,12.59
2018-09-20T08:50:36.530Z,12.72
2018-09-20T08:51:36.477Z,12.72
2018-09-20T08:52:36.527Z,12.79
2018-09-20T08:53:36.783Z,12.75
2018-09-20T08:54:36.484Z,12.74
2018-09-20T08:55:36.532Z,12.71
2018-09-20T08:56:36.516Z,12.68
2018-09-20T08:57:36.644Z,12.66
2018-09-20T08:58:36.458Z,12.82
2018-09-20T08:59:36.491Z,12.82
2018-09-20T09:00:36.509Z,12.87
2018-09-20T09:01:36.477Z,12.86
2018-09-20T09:02:36.478Z,12.83
2018-09-20T09:03:36.499Z,12.83
2018-09-20T09:04:36.934Z,12.79
2018-09-20T09:05:36.453Z,12.77
2018-09-20T09:06:36.787Z,12.86
2018-09-20T09:07:36.498Z,12.86
2018-09-20T09:08:36.484Z,12.9
2018-09-20T09:09:36.829Z,13.03
2018-09-20T09:10:36.551Z,12.92
2018-09-20T09:11:38.323Z,12.91
2018-09-20T09:12:36.537Z,12.82
2018-09-20T09:13:36.934Z,12.84
2018-09-20T09:14:36.473Z,12.91
2018-09-20T09:15:36.833Z,12.92
2018-09-20T09:16:36.447Z,12.73
2018-09-20T09:17:36.664Z,12.65
2018-09-20T09:18:36.661Z,12.66
2018-09-20T09:19:37.121Z,12.66
2018-09-20T09:20:36.557Z,12.76
2018-09-20T09:21:36.506Z,12.63
2018-09-20T09:22:36.576Z,12.67
2018-09-20T09:23:36.597Z,12.82
2018-09-20T09:24:36.969Z,12.59
2018-09-20T09:25:36.536Z,12.65
2018-09-20T09:26:36.606Z,12.69
2018-09-20T09:27:36.482Z,12.64
2018-09-20T09:28:36.952Z,12.64
2018-09-20T09:29:36.594Z,12.63
2018-09-20T09:30:36.510Z,12.74
2018-09-20T09:31:36.464Z,12.73
2018-09-20T09:32:36.627Z,12.65
2018-09-20T09:33:36.577Z,12.64
2018-09-20T09:34:36.762Z,12.5
2018-09-20T09:35:36.682Z,12.43
2018-09-20T09:36:36.563Z,11.99
2018-09-20T09:37:37.732Z,12.37
2018-09-20T09:38:36.681Z,12.34
2018-09-20T09:39:36.716Z,12.25
2018-09-20T09:40:36.932Z,12.21
2018-09-20T09:41:36.614Z,12.19
2018-09-20T09:42:36.714Z,12.27
2018-09-20T09:43:36.621Z,12.26
2018-09-20T09:44:36.625Z,12.05
2018-09-20T09:45:36.638Z,12.19
2018-09-20T09:46:36.562Z,12.27
2018-09-20T09:47:36.750Z,12.28
2018-09-20T09:48:36.752Z,12.29
2018-09-20T09:49:36.771Z,12.17
2018-09-20T09:50:36.678Z,12.22
2018-09-20T09:51:36.503Z,12.21
2018-09-20T09:52:36.579Z,12.19
2018-09-20T09:53:36.849Z,12.33
2018-09-20T09:54:36.897Z,12.31
2018-09-20T09:55:36.467Z,12.42
2018-09-20T09:56:36.729Z,12.52
2018-09-20T09:57:36.666Z,12.46
2018-09-20T09:58:37.232Z,12.28
2018-09-20T09:59:36.849Z,12.32
2018-09-20T10:00:36.772Z,12.42
2018-09-20T10:01:36.526Z,12.46
2018-09-20T10:02:37.491Z,12.38
2018-09-20T10:03:36.504Z,12.33
2018-09-20T10:04:36.547Z,12.33
2018-09-20T10:05:36.731Z,12.44
2018-09-20T10:06:36.760Z,12.47
2018-09-20T10:07:36.686Z,12.45
2018-09-20T10:08:36.582Z,12.47
2018-09-20T10:09:36.818Z,12.51
2018-09-20T10:10:36.608Z,12.54
2018-09-20T10:11:36.533Z,12.52
2018-09-20T10:12:36.490Z,12.57
2018-09-20T10:13:37.095Z,12.38
2018-09-20T10:14:36.640Z,12.44
2018-09-20T10:15:36.501Z,12.44
2018-09-20T10:16:36.485Z,12.49
2018-09-20T10:17:36.578Z,12.34
2018-09-20T10:18:36.416Z,12.43
2018-09-20T10:19:36.692Z,12.58
2018-09-20T10:20:36.557Z,12.52
2018-09-20T10:21:36.683Z,12.53
2018-09-20T10:22:36.773Z,12.53
2018-09-20T10:23:37.038Z,12.41
2018-09-20T10:24:36.513Z,12.4
2018-09-20T10:25:36.764Z,12.39
2018-09-20T10:26:36.471Z,12.39
2018-09-20T10:27:36.460Z,12.54
2018-09-20T10:28:36.488Z,12.49
2018-09-20T10:29:36.734Z,12.45
2018-09-20T10:30:36.546Z,12.45
2018-09-20T10:31:36.508Z,12.48
2018-09-20T10:32:36.471Z,12.56
2018-09-20T10:33:36.525Z,12.51
2018-09-20T10:34:36.869Z,12.55
2018-09-20T10:35:36.670Z,12.58
2018-09-20T10:36:36.649Z,12.59
2018-09-20T10:37:36.644Z,12.54
2018-09-20T10:38:36.743Z,12.48
2018-09-20T10:39:37.023Z,12.54
2018-09-20T10:40:36.611Z,12.5
2018-09-20T10:41:36.799Z,12.18
2018-09-20T10:42:36.501Z,12.32
2018-09-20T10:43:36.823Z,12.33
2018-09-20T10:44:36.984Z,12.39
2018-09-20T10:45:36.564Z,12.23
2018-09-20T10:46:36.652Z,12.26
2018-09-20T10:47:36.444Z,12.33
2018-09-20T10:48:36.543Z,12.39
2018-09-20T10:49:36.437Z,12.4
2018-09-20T10:50:36.801Z,12.43
2018-09-20T10:51:36.536Z,12.2
2018-09-20T10:52:36.586Z,12.36
2018-09-20T10:53:36.631Z,12.38
2018-09-20T10:54:37.125Z,12.38
2018-09-20T10:55:36.808Z,12.42
2018-09-20T10:56:36.471Z,12.51
2018-09-20T10:57:36.625Z,12.44
2018-09-20T10:58:36.660Z,12.37
2018-09-20T10:59:36.839Z,12.4
2018-09-20T11:00:36.764Z,12.44
2018-09-20T11:01:36.483Z,12.39
2018-09-20T11:02:36.453Z,12.41
2018-09-20T11:03:36.469Z,12.44
2018-09-20T11:04:36.455Z,12.46
2018-09-20T11:05:36.627Z,12.42
2018-09-20T11:06:37.163Z,12.39
2018-09-20T11:07:36.581Z,12.42
2018-09-20T11:08:36.467Z,12.46
2018-09-20T11:09:36.493Z,12.46
2018-09-20T11:10:37.347Z,12.39
2018-09-20T11:11:36.431Z,12.36
2018-09-20T11:12:36.616Z,12.41
2018-09-20T11:13:36.447Z,12.38
2018-09-20T11:14:36.489Z,12.4
2018-09-20T11:15:36.665Z,12.39
2018-09-20T11:16:36.668Z,12.35
2018-09-20T11:17:36.621Z,12.4
2018-09-20T11:18:36.555Z,12.34
2018-09-20T11:19:37.185Z,12.44
2018-09-20T11:20:36.774Z,12.36
2018-09-20T11:21:36.459Z,12.29
2018-09-20T11:22:36.679Z,12.4
2018-09-20T11:23:36.600Z,12.44
2018-09-20T11:24:36.577Z,12.56
2018-09-20T11:25:37.844Z,12.34
2018-09-20T11:26:36.571Z,12.33
2018-09-20T11:27:36.487Z,12.18
2018-09-20T11:28:36.522Z,12.21
2018-09-20T11:29:36.612Z,12.18
2018-09-20T11:30:36.566Z,12.12
2018-09-20T11:31:36.467Z,12.19
2018-09-20T11:32:36.460Z,12.18
2018-09-20T11:33:36.518Z,12.29
2018-09-20T11:34:36.674Z,11.83
2018-09-20T11:35:36.619Z,11.82
2018-09-20T11:36:36.440Z,12.07
2018-09-20T11:37:36.697Z,12.07
2018-09-20T11:38:36.465Z,12.05
2018-09-20T11:39:36.605Z,12.08
2018-09-20T11:40:36.726Z,12.16
2018-09-20T11:41:36.593Z,12.05
2018-09-20T11:42:36.613Z,11.94
2018-09-20T11:43:36.459Z,12.2
2018-09-20T11:44:36.434Z,12.06
2018-09-20T11:45:36.531Z,11.75
2018-09-20T11:46:36.831Z,11.22
2018-09-20T11:47:36.489Z,11.2
2018-09-20T11:48:36.655Z,11.34
2018-09-20T11:49:41.493Z,11.39
2018-09-20T11:50:41.481Z,11.48
2018-09-20T11:51:36.734Z,11.5
2018-09-20T11:52:36.801Z,11.53
2018-09-20T11:53:36.680Z,11.53
2018-09-20T11:54:36.691Z,11.57
2018-09-20T11:55:36.718Z,11.29
2018-09-20T11:56:36.434Z,11.38
2018-09-20T11:57:36.675Z,11.35
2018-09-20T11:58:36.421Z,11.28
2018-09-20T11:59:37.069Z,11.24
2018-09-20T12:00:36.547Z,11.22
2018-09-20T12:01:36.465Z,11.48
2018-09-20T12:02:36.582Z,10.78
2018-09-20T12:03:36.497Z,10.8
2018-09-20T12:04:36.701Z,10.96
2018-09-20T12:05:36.689Z,11.25
2018-09-20T12:06:36.587Z,11.33
2018-09-20T12:07:36.413Z,11.39
2018-09-20T12:08:36.443Z,11.33
2018-09-20T12:09:36.602Z,11.17
2018-09-20T12:10:36.709Z,11.27
2018-09-20T12:11:36.597Z,10.99
2018-09-20T12:12:36.531Z,11
2018-09-20T12:13:36.470Z,11.06
2018-09-20T12:14:37.023Z,11.25
2018-09-20T12:15:36.677Z,11.07
2018-09-20T12:16:36.593Z,10.93
2018-09-20T12:17:36.496Z,11.1
2018-09-20T12:18:36.621Z,10.49
2018-09-20T12:19:36.547Z,9.98
2018-09-20T12:20:36.484Z,10.17
2018-09-20T12:21:36.575Z,10.06
2018-09-20T12:22:36.633Z,10.49
2018-09-20T12:23:36.672Z,10.56
2018-09-20T12:24:36.703Z,10.33
2018-09-20T12:25:36.819Z,10.58
2018-09-20T12:26:36.478Z,10.52
2018-09-20T12:27:36.503Z,10.7
2018-09-20T12:28:36.525Z,10.53
2018-09-20T12:29:36.427Z,10.49
2018-09-20T12:30:36.467Z,10.9
2018-09-20T12:31:36.980Z,10.89
2018-09-20T12:32:36.745Z,10.98
2018-09-20T12:33:36.491Z,11
2018-09-20T12:34:36.447Z,11.17
2018-09-20T12:35:37.383Z,11.49
2018-09-20T12:36:36.498Z,11.3
2018-09-20T12:37:36.612Z,11.24
2018-09-20T12:38:37.182Z,10.99
2018-09-20T12:39:36.714Z,11.07
2018-09-20T12:40:36.807Z,11.22
2018-09-20T12:41:36.486Z,10.98
2018-09-20T12:42:36.763Z,11.24
2018-09-20T12:43:36.443Z,11
2018-09-20T12:44:36.517Z,10.95
2018-09-20T12:45:36.837Z,11.04
2018-09-20T12:46:36.660Z,11.03
2018-09-20T12:47:36.469Z,10.8
2018-09-20T12:48:36.671Z,10.99
2018-09-20T12:49:36.612Z,11.03
2018-09-20T12:50:36.493Z,11.08
2018-09-20T12:51:36.627Z,10.99
2018-09-20T12:52:36.567Z,10.91
2018-09-20T12:53:36.460Z,11.07
2018-09-20T12:54:36.876Z,11.09
2018-09-20T12:55:36.803Z,11.05